sensor_id;sensor_type;location;lat;lon;timestamp;temperature;humidity
53498;DHT22;39382;47.168;16.008;2023-08-17T00:02:13;17.90;99.90
53498;DHT22;39382;47.168;16.008;2023-08-17T00:04:39;17.90;99.90
53498;DHT22;39382;47.168;16.008;2023-08-17T00:07:05;17.90;99.90
53498;DHT22;39382;47.168;16.008;2023-08-17T00:09:32;17.90;99.90
53498;DHT22;39382;47.168;16.008;2023-08-17T00:11:57;17.90;99.90
53498;DHT22;39382;47.168;16.008;2023-08-17T00:14:23;17.80;99.90
53498;DHT22;39382;47.168;16.008;2023-08-17T00:16:50;17.80;99.90
53498;DHT22;39382;47.168;16.008;2023-08-17T00:19:16;17.70;99.90
53498;DHT22;39382;47.168;16.008;2023-08-17T00:21:42;17.70;99.90
53498;DHT22;39382;47.168;16.008;2023-08-17T00:24:07;17.70;99.90
53498;DHT22;39382;47.168;16.008;2023-08-17T00:26:33;17.70;99.90
53498;DHT22;39382;47.168;16.008;2023-08-17T00:28:59;17.70;99.90
53498;DHT22;39382;47.168;16.008;2023-08-17T00:31:24;17.70;99.90
53498;DHT22;39382;47.168;16.008;2023-08-17T00:33:50;17.70;99.90
53498;DHT22;39382;47.168;16.008;2023-08-17T00:36:16;17.70;99.90
53498;DHT22;39382;47.168;16.008;2023-08-17T00:38:41;17.80;99.90
53498;DHT22;39382;47.168;16.008;2023-08-17T00:41:07;17.70;99.90
53498;DHT22;39382;47.168;16.008;2023-08-17T00:43:32;17.70;99.90
53498;DHT22;39382;47.168;16.008;2023-08-17T00:45:58;17.80;99.90
53498;DHT22;39382;47.168;16.008;2023-08-17T00:48:25;17.70;99.90
53498;DHT22;39382;47.168;16.008;2023-08-17T00:50:52;17.70;99.90
53498;DHT22;39382;47.168;16.008;2023-08-17T00:53:19;17.70;99.90
53498;DHT22;39382;47.168;16.008;2023-08-17T00:55:46;17.70;99.90
53498;DHT22;39382;47.168;16.008;2023-08-17T00:58:12;17.70;99.90
53498;DHT22;39382;47.168;16.008;2023-08-17T01:00:37;17.80;99.90
53498;DHT22;39382;47.168;16.008;2023-08-17T01:03:03;17.80;99.90
53498;DHT22;39382;47.168;16.008;2023-08-17T01:05:29;17.70;99.90
53498;DHT22;39382;47.168;16.008;2023-08-17T01:07:58;17.80;99.90
53498;DHT22;39382;47.168;16.008;2023-08-17T01:13:43;17.70;99.90
53498;DHT22;39382;47.168;16.008;2023-08-17T01:16:16;17.70;99.90
53498;DHT22;39382;47.168;16.008;2023-08-17T01:18:46;17.70;99.90
53498;DHT22;39382;47.168;16.008;2023-08-17T01:21:14;17.60;99.90
53498;DHT22;39382;47.168;16.008;2023-08-17T01:23:43;17.70;99.90
53498;DHT22;39382;47.168;16.008;2023-08-17T01:26:09;17.70;99.90
53498;DHT22;39382;47.168;16.008;2023-08-17T01:28:35;17.70;99.90
53498;DHT22;39382;47.168;16.008;2023-08-17T01:31:14;17.60;99.90
53498;DHT22;39382;47.168;16.008;2023-08-17T01:33:49;17.60;99.90
53498;DHT22;39382;47.168;16.008;2023-08-17T01:36:26;17.60;99.90
53498;DHT22;39382;47.168;16.008;2023-08-17T01:38:56;17.60;99.90
53498;DHT22;39382;47.168;16.008;2023-08-17T01:41:23;17.50;99.90
53498;DHT22;39382;47.168;16.008;2023-08-17T01:43:50;17.50;99.90
53498;DHT22;39382;47.168;16.008;2023-08-17T01:46:17;17.50;99.90
53498;DHT22;39382;47.168;16.008;2023-08-17T01:48:46;17.50;99.90
53498;DHT22;39382;47.168;16.008;2023-08-17T01:51:18;17.40;99.90
53498;DHT22;39382;47.168;16.008;2023-08-17T01:53:45;17.30;99.90
53498;DHT22;39382;47.168;16.008;2023-08-17T01:56:11;17.30;99.90
53498;DHT22;39382;47.168;16.008;2023-08-17T01:58:36;17.30;99.90
53498;DHT22;39382;47.168;16.008;2023-08-17T02:01:02;17.30;99.90
53498;DHT22;39382;47.168;16.008;2023-08-17T02:03:27;17.40;99.90
53498;DHT22;39382;47.168;16.008;2023-08-17T02:05:56;17.30;99.90
53498;DHT22;39382;47.168;16.008;2023-08-17T02:08:22;17.40;99.90
53498;DHT22;39382;47.168;16.008;2023-08-17T02:10:47;17.30;99.90
53498;DHT22;39382;47.168;16.008;2023-08-17T02:13:14;17.30;99.90
53498;DHT22;39382;47.168;16.008;2023-08-17T02:15:40;17.30;99.90
53498;DHT22;39382;47.168;16.008;2023-08-17T02:18:05;17.30;99.90
53498;DHT22;39382;47.168;16.008;2023-08-17T02:20:31;17.30;99.90
53498;DHT22;39382;47.168;16.008;2023-08-17T02:22:57;17.30;99.90
53498;DHT22;39382;47.168;16.008;2023-08-17T02:25:22;17.30;99.90
53498;DHT22;39382;47.168;16.008;2023-08-17T02:27:48;17.40;99.90
53498;DHT22;39382;47.168;16.008;2023-08-17T02:30:14;17.40;99.90
53498;DHT22;39382;47.168;16.008;2023-08-17T02:32:39;17.40;99.90
53498;DHT22;39382;47.168;16.008;2023-08-17T02:35:06;17.30;99.90
53498;DHT22;39382;47.168;16.008;2023-08-17T02:37:31;17.30;99.90
53498;DHT22;39382;47.168;16.008;2023-08-17T02:39:57;17.40;99.90
53498;DHT22;39382;47.168;16.008;2023-08-17T02:42:23;17.40;99.90
53498;DHT22;39382;47.168;16.008;2023-08-17T02:44:48;17.40;99.90
53498;DHT22;39382;47.168;16.008;2023-08-17T02:47:14;17.50;99.90
53498;DHT22;39382;47.168;16.008;2023-08-17T02:49:40;17.40;99.90
53498;DHT22;39382;47.168;16.008;2023-08-17T02:52:05;17.40;99.90
53498;DHT22;39382;47.168;16.008;2023-08-17T02:54:31;17.50;99.90
53498;DHT22;39382;47.168;16.008;2023-08-17T02:56:57;17.40;99.90
53498;DHT22;39382;47.168;16.008;2023-08-17T02:59:23;17.40;99.90
53498;DHT22;39382;47.168;16.008;2023-08-17T03:01:49;17.40;99.90
53498;DHT22;39382;47.168;16.008;2023-08-17T03:04:14;17.40;99.90
53498;DHT22;39382;47.168;16.008;2023-08-17T03:06:40;17.40;99.90
53498;DHT22;39382;47.168;16.008;2023-08-17T03:09:06;17.40;99.90
53498;DHT22;39382;47.168;16.008;2023-08-17T03:11:32;17.40;99.90
53498;DHT22;39382;47.168;16.008;2023-08-17T03:13:57;17.40;99.90
53498;DHT22;39382;47.168;16.008;2023-08-17T03:16:29;17.40;99.90
53498;DHT22;39382;47.168;16.008;2023-08-17T03:18:57;17.40;99.90
53498;DHT22;39382;47.168;16.008;2023-08-17T03:21:23;17.40;99.90
53498;DHT22;39382;47.168;16.008;2023-08-17T03:23:49;17.30;99.90
53498;DHT22;39382;47.168;16.008;2023-08-17T03:26:15;17.30;99.90
53498;DHT22;39382;47.168;16.008;2023-08-17T03:28:41;17.30;99.90
53498;DHT22;39382;47.168;16.008;2023-08-17T03:31:07;17.40;99.90
53498;DHT22;39382;47.168;16.008;2023-08-17T03:33:35;17.30;99.90
53498;DHT22;39382;47.168;16.008;2023-08-17T03:36:01;17.30;99.90
53498;DHT22;39382;47.168;16.008;2023-08-17T03:38:27;17.30;99.90
53498;DHT22;39382;47.168;16.008;2023-08-17T03:40:52;17.30;99.90
53498;DHT22;39382;47.168;16.008;2023-08-17T03:43:18;17.30;99.90
53498;DHT22;39382;47.168;16.008;2023-08-17T03:45:43;17.30;99.90
53498;DHT22;39382;47.168;16.008;2023-08-17T03:48:09;17.30;99.90
53498;DHT22;39382;47.168;16.008;2023-08-17T03:50:35;17.40;99.90
53498;DHT22;39382;47.168;16.008;2023-08-17T03:53:01;17.40;99.90
53498;DHT22;39382;47.168;16.008;2023-08-17T03:55:27;17.40;99.90
53498;DHT22;39382;47.168;16.008;2023-08-17T03:57:52;17.40;99.90
53498;DHT22;39382;47.168;16.008;2023-08-17T04:00:18;17.40;99.90
53498;DHT22;39382;47.168;16.008;2023-08-17T04:02:44;17.40;99.90
53498;DHT22;39382;47.168;16.008;2023-08-17T04:05:09;17.40;99.90
53498;DHT22;39382;47.168;16.008;2023-08-17T04:07:36;17.40;99.90
53498;DHT22;39382;47.168;16.008;2023-08-17T04:10:03;17.40;99.90
53498;DHT22;39382;47.168;16.008;2023-08-17T04:12:28;17.40;99.90
53498;DHT22;39382;47.168;16.008;2023-08-17T04:14:54;17.40;99.90
53498;DHT22;39382;47.168;16.008;2023-08-17T04:17:19;17.50;99.90
53498;DHT22;39382;47.168;16.008;2023-08-17T04:19:46;17.50;99.90
53498;DHT22;39382;47.168;16.008;2023-08-17T04:22:12;17.50;99.90
53498;DHT22;39382;47.168;16.008;2023-08-17T04:24:37;17.50;99.90
53498;DHT22;39382;47.168;16.008;2023-08-17T04:27:03;17.50;99.90
53498;DHT22;39382;47.168;16.008;2023-08-17T04:29:30;17.60;99.90
53498;DHT22;39382;47.168;16.008;2023-08-17T04:31:56;17.60;99.90
53498;DHT22;39382;47.168;16.008;2023-08-17T04:34:22;19.20;99.90
53498;DHT22;39382;47.168;16.008;2023-08-17T04:36:47;19.60;99.90
53498;DHT22;39382;47.168;16.008;2023-08-17T04:39:13;19.80;99.90
53498;DHT22;39382;47.168;16.008;2023-08-17T04:41:38;20.10;99.90
53498;DHT22;39382;47.168;16.008;2023-08-17T04:44:04;20.00;99.90
53498;DHT22;39382;47.168;16.008;2023-08-17T04:46:30;20.30;99.90
53498;DHT22;39382;47.168;16.008;2023-08-17T04:48:55;20.40;99.90
53498;DHT22;39382;47.168;16.008;2023-08-17T04:51:21;20.30;99.90
53498;DHT22;39382;47.168;16.008;2023-08-17T04:53:47;20.40;99.90
53498;DHT22;39382;47.168;16.008;2023-08-17T04:56:12;20.60;99.90
53498;DHT22;39382;47.168;16.008;2023-08-17T04:58:38;20.70;99.90
53498;DHT22;39382;47.168;16.008;2023-08-17T05:01:04;20.50;99.90
53498;DHT22;39382;47.168;16.008;2023-08-17T05:03:29;20.60;99.90
53498;DHT22;39382;47.168;16.008;2023-08-17T05:05:56;20.60;99.90
53498;DHT22;39382;47.168;16.008;2023-08-17T05:08:22;20.80;99.90
53498;DHT22;39382;47.168;16.008;2023-08-17T05:10:48;20.80;99.90
53498;DHT22;39382;47.168;16.008;2023-08-17T05:13:13;20.60;99.90
53498;DHT22;39382;47.168;16.008;2023-08-17T05:15:39;20.40;99.90
53498;DHT22;39382;47.168;16.008;2023-08-17T05:18:05;20.60;99.90
53498;DHT22;39382;47.168;16.008;2023-08-17T05:20:31;20.70;99.90
53498;DHT22;39382;47.168;16.008;2023-08-17T05:22:56;20.80;99.90
53498;DHT22;39382;47.168;16.008;2023-08-17T05:25:22;21.10;99.90
53498;DHT22;39382;47.168;16.008;2023-08-17T05:27:48;21.10;99.90
53498;DHT22;39382;47.168;16.008;2023-08-17T05:30:17;21.00;99.90
53498;DHT22;39382;47.168;16.008;2023-08-17T05:32:43;20.70;99.90
53498;DHT22;39382;47.168;16.008;2023-08-17T05:35:08;20.50;99.90
53498;DHT22;39382;47.168;16.008;2023-08-17T05:37:34;20.60;99.90
53498;DHT22;39382;47.168;16.008;2023-08-17T05:40:00;20.40;99.90
53498;DHT22;39382;47.168;16.008;2023-08-17T05:42:25;20.70;99.90
53498;DHT22;39382;47.168;16.008;2023-08-17T05:44:51;20.70;99.90
53498;DHT22;39382;47.168;16.008;2023-08-17T05:47:16;20.50;99.90
53498;DHT22;39382;47.168;16.008;2023-08-17T05:49:44;20.80;99.90
53498;DHT22;39382;47.168;16.008;2023-08-17T05:52:10;21.10;99.90
53498;DHT22;39382;47.168;16.008;2023-08-17T05:54:35;21.20;99.90
53498;DHT22;39382;47.168;16.008;2023-08-17T05:57:03;21.50;99.90
53498;DHT22;39382;47.168;16.008;2023-08-17T05:59:28;21.40;99.90
53498;DHT22;39382;47.168;16.008;2023-08-17T06:01:54;21.40;99.90
53498;DHT22;39382;47.168;16.008;2023-08-17T06:04:20;21.50;99.90
53498;DHT22;39382;47.168;16.008;2023-08-17T06:06:46;21.40;99.90
53498;DHT22;39382;47.168;16.008;2023-08-17T06:09:12;21.50;99.90
53498;DHT22;39382;47.168;16.008;2023-08-17T06:11:37;21.40;99.90
53498;DHT22;39382;47.168;16.008;2023-08-17T06:14:04;21.50;99.90
53498;DHT22;39382;47.168;16.008;2023-08-17T06:16:29;21.70;99.90
53498;DHT22;39382;47.168;16.008;2023-08-17T06:18:55;21.80;99.90
53498;DHT22;39382;47.168;16.008;2023-08-17T06:21:21;21.90;99.90
53498;DHT22;39382;47.168;16.008;2023-08-17T06:23:46;22.00;99.90
53498;DHT22;39382;47.168;16.008;2023-08-17T06:26:12;22.20;99.90
53498;DHT22;39382;47.168;16.008;2023-08-17T06:28:38;22.30;99.90
53498;DHT22;39382;47.168;16.008;2023-08-17T06:31:03;22.40;99.90
53498;DHT22;39382;47.168;16.008;2023-08-17T06:33:29;22.50;99.90
53498;DHT22;39382;47.168;16.008;2023-08-17T06:35:55;22.50;99.90
53498;DHT22;39382;47.168;16.008;2023-08-17T06:38:20;22.50;99.90
53498;DHT22;39382;47.168;16.008;2023-08-17T06:40:46;22.40;99.90
53498;DHT22;39382;47.168;16.008;2023-08-17T06:43:12;22.50;99.90
53498;DHT22;39382;47.168;16.008;2023-08-17T06:45:37;22.70;99.90
53498;DHT22;39382;47.168;16.008;2023-08-17T06:48:03;22.80;99.90
53498;DHT22;39382;47.168;16.008;2023-08-17T06:50:29;22.90;99.90
53498;DHT22;39382;47.168;16.008;2023-08-17T06:52:54;22.90;99.90
53498;DHT22;39382;47.168;16.008;2023-08-17T06:55:20;23.00;99.90
53498;DHT22;39382;47.168;16.008;2023-08-17T06:57:47;22.90;99.90
53498;DHT22;39382;47.168;16.008;2023-08-17T07:00:15;23.00;99.90
53498;DHT22;39382;47.168;16.008;2023-08-17T07:02:41;23.20;99.90
53498;DHT22;39382;47.168;16.008;2023-08-17T07:05:06;23.40;99.90
53498;DHT22;39382;47.168;16.008;2023-08-17T07:07:33;23.30;99.90
53498;DHT22;39382;47.168;16.008;2023-08-17T07:09:59;23.30;99.90
53498;DHT22;39382;47.168;16.008;2023-08-17T07:12:25;23.20;99.90
53498;DHT22;39382;47.168;16.008;2023-08-17T07:14:51;23.20;99.90
53498;DHT22;39382;47.168;16.008;2023-08-17T07:17:16;23.40;99.90
53498;DHT22;39382;47.168;16.008;2023-08-17T07:19:42;23.60;99.90
53498;DHT22;39382;47.168;16.008;2023-08-17T07:22:08;23.60;99.90
53498;DHT22;39382;47.168;16.008;2023-08-17T07:24:33;23.60;99.90
53498;DHT22;39382;47.168;16.008;2023-08-17T07:26:59;23.50;99.90
53498;DHT22;39382;47.168;16.008;2023-08-17T07:29:25;23.50;99.90
53498;DHT22;39382;47.168;16.008;2023-08-17T07:31:50;23.50;99.90
53498;DHT22;39382;47.168;16.008;2023-08-17T07:34:16;23.50;99.90
53498;DHT22;39382;47.168;16.008;2023-08-17T07:36:42;23.60;99.90
53498;DHT22;39382;47.168;16.008;2023-08-17T07:39:07;23.70;99.90
53498;DHT22;39382;47.168;16.008;2023-08-17T07:41:33;23.70;99.90
53498;DHT22;39382;47.168;16.008;2023-08-17T07:43:58;23.80;99.90
53498;DHT22;39382;47.168;16.008;2023-08-17T07:46:24;23.80;99.90
53498;DHT22;39382;47.168;16.008;2023-08-17T07:48:50;23.90;99.90
53498;DHT22;39382;47.168;16.008;2023-08-17T07:51:16;23.80;99.90
53498;DHT22;39382;47.168;16.008;2023-08-17T07:53:41;23.80;99.90
53498;DHT22;39382;47.168;16.008;2023-08-17T07:56:07;24.00;99.90
53498;DHT22;39382;47.168;16.008;2023-08-17T07:58:33;24.10;99.90
53498;DHT22;39382;47.168;16.008;2023-08-17T08:00:58;24.20;99.90
53498;DHT22;39382;47.168;16.008;2023-08-17T08:03:24;24.20;99.90
53498;DHT22;39382;47.168;16.008;2023-08-17T08:05:49;24.30;99.90
53498;DHT22;39382;47.168;16.008;2023-08-17T08:08:15;24.40;99.90
53498;DHT22;39382;47.168;16.008;2023-08-17T08:10:43;24.50;99.90
53498;DHT22;39382;47.168;16.008;2023-08-17T08:13:09;24.60;99.90
53498;DHT22;39382;47.168;16.008;2023-08-17T08:15:34;24.70;99.90
53498;DHT22;39382;47.168;16.008;2023-08-17T08:18:00;24.80;99.90
53498;DHT22;39382;47.168;16.008;2023-08-17T08:20:26;24.80;99.90
53498;DHT22;39382;47.168;16.008;2023-08-17T08:22:51;24.80;99.90
53498;DHT22;39382;47.168;16.008;2023-08-17T08:25:17;24.80;99.90
53498;DHT22;39382;47.168;16.008;2023-08-17T08:27:42;24.80;99.90
53498;DHT22;39382;47.168;16.008;2023-08-17T08:30:08;24.80;99.90
53498;DHT22;39382;47.168;16.008;2023-08-17T08:32:34;24.90;99.90
53498;DHT22;39382;47.168;16.008;2023-08-17T08:34:59;25.10;99.90
53498;DHT22;39382;47.168;16.008;2023-08-17T08:37:25;25.20;99.90
53498;DHT22;39382;47.168;16.008;2023-08-17T08:39:54;25.30;99.90
53498;DHT22;39382;47.168;16.008;2023-08-17T08:42:21;25.50;99.50
53498;DHT22;39382;47.168;16.008;2023-08-17T08:44:47;25.70;98.70
53498;DHT22;39382;47.168;16.008;2023-08-17T08:47:14;25.70;96.80
53498;DHT22;39382;47.168;16.008;2023-08-17T08:49:51;25.70;95.40
53498;DHT22;39382;47.168;16.008;2023-08-17T08:52:22;25.70;95.70
53498;DHT22;39382;47.168;16.008;2023-08-17T08:54:50;25.50;94.60
53498;DHT22;39382;47.168;16.008;2023-08-17T08:57:17;25.50;96.00
53498;DHT22;39382;47.168;16.008;2023-08-17T08:59:45;25.70;96.30
53498;DHT22;39382;47.168;16.008;2023-08-17T09:02:15;25.80;96.60
53498;DHT22;39382;47.168;16.008;2023-08-17T09:04:45;25.90;95.70
53498;DHT22;39382;47.168;16.008;2023-08-17T09:07:12;25.90;94.90
53498;DHT22;39382;47.168;16.008;2023-08-17T09:09:39;26.00;95.80
53498;DHT22;39382;47.168;16.008;2023-08-17T09:12:08;26.00;96.00
53498;DHT22;39382;47.168;16.008;2023-08-17T09:14:37;26.20;95.30
53498;DHT22;39382;47.168;16.008;2023-08-17T09:17:06;26.20;95.10
53498;DHT22;39382;47.168;16.008;2023-08-17T09:19:32;26.40;95.60
53498;DHT22;39382;47.168;16.008;2023-08-17T09:21:59;26.40;94.40
53498;DHT22;39382;47.168;16.008;2023-08-17T09:24:34;26.40;94.20
53498;DHT22;39382;47.168;16.008;2023-08-17T09:27:00;26.60;94.60
53498;DHT22;39382;47.168;16.008;2023-08-17T09:29:26;26.60;92.50
53498;DHT22;39382;47.168;16.008;2023-08-17T09:31:52;26.60;93.00
53498;DHT22;39382;47.168;16.008;2023-08-17T09:34:18;26.60;93.60
53498;DHT22;39382;47.168;16.008;2023-08-17T09:36:47;26.60;92.50
53498;DHT22;39382;47.168;16.008;2023-08-17T09:39:15;26.70;91.80
53498;DHT22;39382;47.168;16.008;2023-08-17T09:41:44;26.50;91.40
53498;DHT22;39382;47.168;16.008;2023-08-17T09:44:09;26.60;92.60
53498;DHT22;39382;47.168;16.008;2023-08-17T09:46:36;26.70;93.20
53498;DHT22;39382;47.168;16.008;2023-08-17T09:49:02;26.80;93.60
53498;DHT22;39382;47.168;16.008;2023-08-17T09:51:30;26.90;92.20
53498;DHT22;39382;47.168;16.008;2023-08-17T09:53:56;26.80;91.70
53498;DHT22;39382;47.168;16.008;2023-08-17T09:56:23;27.00;92.60
53498;DHT22;39382;47.168;16.008;2023-08-17T09:58:50;27.00;87.60
53498;DHT22;39382;47.168;16.008;2023-08-17T10:01:16;27.20;90.00
53498;DHT22;39382;47.168;16.008;2023-08-17T10:03:43;27.30;90.10
53498;DHT22;39382;47.168;16.008;2023-08-17T10:06:13;27.30;89.90
53498;DHT22;39382;47.168;16.008;2023-08-17T10:08:58;27.40;86.20
53498;DHT22;39382;47.168;16.008;2023-08-17T10:11:26;27.50;89.20
53498;DHT22;39382;47.168;16.008;2023-08-17T10:13:59;27.40;87.30
53498;DHT22;39382;47.168;16.008;2023-08-17T10:16:44;27.20;86.20
53498;DHT22;39382;47.168;16.008;2023-08-17T10:19:18;27.40;89.40
53498;DHT22;39382;47.168;16.008;2023-08-17T10:21:50;27.80;86.80
53498;DHT22;39382;47.168;16.008;2023-08-17T10:24:19;27.80;84.70
53498;DHT22;39382;47.168;16.008;2023-08-17T10:26:45;27.80;84.70
53498;DHT22;39382;47.168;16.008;2023-08-17T10:29:11;27.50;85.00
53498;DHT22;39382;47.168;16.008;2023-08-17T10:31:37;27.30;82.50
53498;DHT22;39382;47.168;16.008;2023-08-17T10:34:04;27.50;80.90
53498;DHT22;39382;47.168;16.008;2023-08-17T10:36:31;27.30;80.60
53498;DHT22;39382;47.168;16.008;2023-08-17T10:39:23;27.20;80.20
53498;DHT22;39382;47.168;16.008;2023-08-17T10:41:50;27.40;83.00
53498;DHT22;39382;47.168;16.008;2023-08-17T10:44:18;27.60;82.60
53498;DHT22;39382;47.168;16.008;2023-08-17T10:46:43;27.80;85.10
53498;DHT22;39382;47.168;16.008;2023-08-17T10:49:37;28.00;80.90
53498;DHT22;39382;47.168;16.008;2023-08-17T10:52:03;28.20;81.80
53498;DHT22;39382;47.168;16.008;2023-08-17T10:54:42;28.20;80.50
53498;DHT22;39382;47.168;16.008;2023-08-17T10:57:33;28.10;79.00
53498;DHT22;39382;47.168;16.008;2023-08-17T11:00:24;28.00;77.60
53498;DHT22;39382;47.168;16.008;2023-08-17T11:02:57;27.90;75.40
53498;DHT22;39382;47.168;16.008;2023-08-17T11:08:05;27.50;77.80
53498;DHT22;39382;47.168;16.008;2023-08-17T11:10:31;27.60;76.80
53498;DHT22;39382;47.168;16.008;2023-08-17T11:12:57;27.70;78.70
53498;DHT22;39382;47.168;16.008;2023-08-17T11:15:41;27.70;77.90
53498;DHT22;39382;47.168;16.008;2023-08-17T11:18:11;27.90;77.70
53498;DHT22;39382;47.168;16.008;2023-08-17T11:20:39;27.90;77.40
53498;DHT22;39382;47.168;16.008;2023-08-17T11:23:05;28.10;77.90
53498;DHT22;39382;47.168;16.008;2023-08-17T11:25:32;28.10;76.90
53498;DHT22;39382;47.168;16.008;2023-08-17T11:27:59;28.10;77.20
53498;DHT22;39382;47.168;16.008;2023-08-17T11:30:25;27.80;76.10
53498;DHT22;39382;47.168;16.008;2023-08-17T11:32:53;27.80;77.10
53498;DHT22;39382;47.168;16.008;2023-08-17T11:35:19;27.80;78.60
53498;DHT22;39382;47.168;16.008;2023-08-17T11:37:46;27.90;78.30
53498;DHT22;39382;47.168;16.008;2023-08-17T11:40:12;28.10;77.90
53498;DHT22;39382;47.168;16.008;2023-08-17T11:42:38;28.30;74.80
53498;DHT22;39382;47.168;16.008;2023-08-17T11:45:05;28.30;75.10
53498;DHT22;39382;47.168;16.008;2023-08-17T11:47:31;28.50;76.80
53498;DHT22;39382;47.168;16.008;2023-08-17T11:50:01;28.50;76.10
53498;DHT22;39382;47.168;16.008;2023-08-17T11:52:29;28.70;75.80
53498;DHT22;39382;47.168;16.008;2023-08-17T11:54:56;28.50;75.30
53498;DHT22;39382;47.168;16.008;2023-08-17T11:57:22;28.60;76.10
53498;DHT22;39382;47.168;16.008;2023-08-17T11:59:47;28.70;75.30
53498;DHT22;39382;47.168;16.008;2023-08-17T12:02:13;28.90;75.60
53498;DHT22;39382;47.168;16.008;2023-08-17T12:04:39;29.00;74.50
53498;DHT22;39382;47.168;16.008;2023-08-17T12:07:05;28.80;72.40
53498;DHT22;39382;47.168;16.008;2023-08-17T12:09:34;28.70;73.70
53498;DHT22;39382;47.168;16.008;2023-08-17T12:12:00;28.50;71.20
53498;DHT22;39382;47.168;16.008;2023-08-17T12:14:30;28.70;73.00
53498;DHT22;39382;47.168;16.008;2023-08-17T12:16:57;28.70;72.70
53498;DHT22;39382;47.168;16.008;2023-08-17T12:19:24;28.80;72.10
53498;DHT22;39382;47.168;16.008;2023-08-17T12:21:50;28.90;72.30
53498;DHT22;39382;47.168;16.008;2023-08-17T12:24:16;28.90;73.80
53498;DHT22;39382;47.168;16.008;2023-08-17T12:26:45;28.90;71.30
53498;DHT22;39382;47.168;16.008;2023-08-17T12:29:14;28.80;72.20
53498;DHT22;39382;47.168;16.008;2023-08-17T12:31:40;28.80;72.00
53498;DHT22;39382;47.168;16.008;2023-08-17T12:34:06;28.50;71.70
53498;DHT22;39382;47.168;16.008;2023-08-17T12:36:34;28.50;74.30
53498;DHT22;39382;47.168;16.008;2023-08-17T12:39:04;28.60;74.90
53498;DHT22;39382;47.168;16.008;2023-08-17T12:41:29;28.50;74.60
53498;DHT22;39382;47.168;16.008;2023-08-17T12:43:55;28.50;73.60
53498;DHT22;39382;47.168;16.008;2023-08-17T12:46:24;28.10;75.20
53498;DHT22;39382;47.168;16.008;2023-08-17T12:48:50;27.90;75.70
53498;DHT22;39382;47.168;16.008;2023-08-17T12:51:15;28.00;75.60
53498;DHT22;39382;47.168;16.008;2023-08-17T12:53:41;28.10;75.70
53498;DHT22;39382;47.168;16.008;2023-08-17T12:56:07;28.30;76.20
53498;DHT22;39382;47.168;16.008;2023-08-17T12:58:33;28.50;75.60
53498;DHT22;39382;47.168;16.008;2023-08-17T13:00:58;28.70;73.60
53498;DHT22;39382;47.168;16.008;2023-08-17T13:03:24;28.60;72.80
53498;DHT22;39382;47.168;16.008;2023-08-17T13:05:50;28.50;74.50
53498;DHT22;39382;47.168;16.008;2023-08-17T13:08:15;28.60;74.70
53498;DHT22;39382;47.168;16.008;2023-08-17T13:10:41;28.50;75.30
53498;DHT22;39382;47.168;16.008;2023-08-17T13:13:07;28.60;75.40
53498;DHT22;39382;47.168;16.008;2023-08-17T13:15:33;28.60;74.80
53498;DHT22;39382;47.168;16.008;2023-08-17T13:17:59;28.80;73.50
53498;DHT22;39382;47.168;16.008;2023-08-17T13:20:25;28.60;74.30
53498;DHT22;39382;47.168;16.008;2023-08-17T13:22:50;28.50;74.40
53498;DHT22;39382;47.168;16.008;2023-08-17T13:25:16;28.30;76.10
53498;DHT22;39382;47.168;16.008;2023-08-17T13:27:42;28.50;77.80
53498;DHT22;39382;47.168;16.008;2023-08-17T13:30:08;28.70;75.60
53498;DHT22;39382;47.168;16.008;2023-08-17T13:32:34;28.70;75.90
53498;DHT22;39382;47.168;16.008;2023-08-17T13:35:01;28.10;75.70
53498;DHT22;39382;47.168;16.008;2023-08-17T13:37:27;27.70;77.80
53498;DHT22;39382;47.168;16.008;2023-08-17T13:39:53;27.40;79.70
53498;DHT22;39382;47.168;16.008;2023-08-17T13:42:19;27.30;81.50
53498;DHT22;39382;47.168;16.008;2023-08-17T13:44:45;27.40;82.90
53498;DHT22;39382;47.168;16.008;2023-08-17T13:47:11;27.60;82.20
53498;DHT22;39382;47.168;16.008;2023-08-17T13:49:37;27.80;82.80
53498;DHT22;39382;47.168;16.008;2023-08-17T13:52:03;28.00;82.60
53498;DHT22;39382;47.168;16.008;2023-08-17T13:54:29;28.20;83.00
53498;DHT22;39382;47.168;16.008;2023-08-17T13:56:54;28.30;80.20
53498;DHT22;39382;47.168;16.008;2023-08-17T13:59:20;28.20;81.50
53498;DHT22;39382;47.168;16.008;2023-08-17T14:01:46;28.20;80.10
53498;DHT22;39382;47.168;16.008;2023-08-17T14:04:11;28.30;80.90
53498;DHT22;39382;47.168;16.008;2023-08-17T14:06:40;28.30;80.70
53498;DHT22;39382;47.168;16.008;2023-08-17T14:09:06;28.50;80.50
53498;DHT22;39382;47.168;16.008;2023-08-17T14:11:32;28.70;81.40
53498;DHT22;39382;47.168;16.008;2023-08-17T14:13:58;28.80;81.30
53498;DHT22;39382;47.168;16.008;2023-08-17T14:16:23;29.00;77.40
53498;DHT22;39382;47.168;16.008;2023-08-17T14:18:49;29.20;76.00
53498;DHT22;39382;47.168;16.008;2023-08-17T14:21:15;29.10;76.80
53498;DHT22;39382;47.168;16.008;2023-08-17T14:23:40;29.10;76.00
53498;DHT22;39382;47.168;16.008;2023-08-17T14:26:06;28.90;77.20
53498;DHT22;39382;47.168;16.008;2023-08-17T14:28:32;28.70;78.80
53498;DHT22;39382;47.168;16.008;2023-08-17T14:30:58;28.50;78.30
53498;DHT22;39382;47.168;16.008;2023-08-17T14:33:23;28.10;79.00
53498;DHT22;39382;47.168;16.008;2023-08-17T14:35:49;27.60;80.20
53498;DHT22;39382;47.168;16.008;2023-08-17T14:38:16;27.30;81.80
53498;DHT22;39382;47.168;16.008;2023-08-17T14:40:43;27.20;82.60
53498;DHT22;39382;47.168;16.008;2023-08-17T14:43:10;27.00;83.10
53498;DHT22;39382;47.168;16.008;2023-08-17T14:45:38;26.70;83.90
53498;DHT22;39382;47.168;16.008;2023-08-17T14:48:04;26.60;85.40
53498;DHT22;39382;47.168;16.008;2023-08-17T14:50:30;26.60;85.40
53498;DHT22;39382;47.168;16.008;2023-08-17T14:52:55;26.60;86.70
53498;DHT22;39382;47.168;16.008;2023-08-17T14:55:21;26.60;87.80
53498;DHT22;39382;47.168;16.008;2023-08-17T14:57:47;26.60;87.50
53498;DHT22;39382;47.168;16.008;2023-08-17T15:00:13;26.60;87.70
53498;DHT22;39382;47.168;16.008;2023-08-17T15:02:39;26.60;86.60
53498;DHT22;39382;47.168;16.008;2023-08-17T15:05:05;26.70;86.50
53498;DHT22;39382;47.168;16.008;2023-08-17T15:07:31;27.00;87.70
53498;DHT22;39382;47.168;16.008;2023-08-17T15:09:57;27.30;86.50
53498;DHT22;39382;47.168;16.008;2023-08-17T15:12:23;27.50;83.90
53498;DHT22;39382;47.168;16.008;2023-08-17T15:14:48;27.60;83.50
53498;DHT22;39382;47.168;16.008;2023-08-17T15:17:14;27.60;84.20
53498;DHT22;39382;47.168;16.008;2023-08-17T15:19:39;27.50;83.80